sensor_id;sensor_type;location;lat;lon;timestamp;temperature;humidity
23827;DHT22;12094;50.822;4.376;2022-12-18T00:01:37;-0.70;99.90
23827;DHT22;12094;50.822;4.376;2022-12-18T00:04:20;-0.70;99.90
23827;DHT22;12094;50.822;4.376;2022-12-18T00:06:50;-0.70;99.90
23827;DHT22;12094;50.822;4.376;2022-12-18T00:09:19;-0.60;99.90
23827;DHT22;12094;50.822;4.376;2022-12-18T00:11:49;-0.70;99.90
23827;DHT22;12094;50.822;4.376;2022-12-18T00:14:18;-0.80;99.90
23827;DHT22;12094;50.822;4.376;2022-12-18T00:16:47;-0.90;99.90
23827;DHT22;12094;50.822;4.376;2022-12-18T00:19:16;-1.00;99.90
23827;DHT22;12094;50.822;4.376;2022-12-18T00:21:45;-1.00;99.90
23827;DHT22;12094;50.822;4.376;2022-12-18T00:24:13;-0.90;99.90
23827;DHT22;12094;50.822;4.376;2022-12-18T00:26:40;-0.90;99.90
23827;DHT22;12094;50.822;4.376;2022-12-18T00:29:11;-1.00;99.90
23827;DHT22;12094;50.822;4.376;2022-12-18T00:31:46;-1.10;99.90
23827;DHT22;12094;50.822;4.376;2022-12-18T00:34:16;-1.10;99.90
23827;DHT22;12094;50.822;4.376;2022-12-18T00:36:47;-1.30;99.90
23827;DHT22;12094;50.822;4.376;2022-12-18T00:39:14;-1.40;99.90
23827;DHT22;12094;50.822;4.376;2022-12-18T00:41:47;-1.50;99.90
23827;DHT22;12094;50.822;4.376;2022-12-18T00:44:36;-1.40;99.90
23827;DHT22;12094;50.822;4.376;2022-12-18T00:47:09;-1.50;99.90
23827;DHT22;12094;50.822;4.376;2022-12-18T00:50:05;-1.50;99.90
23827;DHT22;12094;50.822;4.376;2022-12-18T00:52:59;-1.60;99.90
23827;DHT22;12094;50.822;4.376;2022-12-18T00:55:31;-1.60;99.90
23827;DHT22;12094;50.822;4.376;2022-12-18T00:57:59;-1.60;99.90
23827;DHT22;12094;50.822;4.376;2022-12-18T01:00:30;-1.60;99.90
23827;DHT22;12094;50.822;4.376;2022-12-18T01:02:59;-1.60;99.90
23827;DHT22;12094;50.822;4.376;2022-12-18T01:05:26;-1.50;99.90
23827;DHT22;12094;50.822;4.376;2022-12-18T01:07:55;-1.50;99.90
23827;DHT22;12094;50.822;4.376;2022-12-18T01:10:23;-1.40;99.90
23827;DHT22;12094;50.822;4.376;2022-12-18T01:12:53;-1.40;99.90
23827;DHT22;12094;50.822;4.376;2022-12-18T01:15:22;-1.30;99.90
23827;DHT22;12094;50.822;4.376;2022-12-18T01:17:53;-1.40;99.90
23827;DHT22;12094;50.822;4.376;2022-12-18T01:20:21;-1.40;99.90
23827;DHT22;12094;50.822;4.376;2022-12-18T01:22:50;-1.40;99.90
23827;DHT22;12094;50.822;4.376;2022-12-18T01:25:19;-1.40;99.90
23827;DHT22;12094;50.822;4.376;2022-12-18T01:27:52;-1.40;99.90
23827;DHT22;12094;50.822;4.376;2022-12-18T01:30:20;-1.40;99.90
23827;DHT22;12094;50.822;4.376;2022-12-18T01:32:48;-1.30;99.90
23827;DHT22;12094;50.822;4.376;2022-12-18T01:35:16;-1.20;99.90
23827;DHT22;12094;50.822;4.376;2022-12-18T01:41:18;-1.40;99.90
23827;DHT22;12094;50.822;4.376;2022-12-18T01:43:53;-1.40;99.90
23827;DHT22;12094;50.822;4.376;2022-12-18T01:46:22;-1.40;99.90
23827;DHT22;12094;50.822;4.376;2022-12-18T01:48:55;-1.40;99.90
23827;DHT22;12094;50.822;4.376;2022-12-18T01:51:27;-1.40;99.90
23827;DHT22;12094;50.822;4.376;2022-12-18T01:53:57;-1.40;99.90
23827;DHT22;12094;50.822;4.376;2022-12-18T01:56:26;-1.40;99.90
23827;DHT22;12094;50.822;4.376;2022-12-18T01:59:06;-1.50;99.90
23827;DHT22;12094;50.822;4.376;2022-12-18T02:01:35;-1.40;99.90
23827;DHT22;12094;50.822;4.376;2022-12-18T02:04:25;-1.50;99.90
23827;DHT22;12094;50.822;4.376;2022-12-18T02:07:07;-1.60;99.90
23827;DHT22;12094;50.822;4.376;2022-12-18T02:17:45;-1.60;99.90
23827;DHT22;12094;50.822;4.376;2022-12-18T02:26:18;-1.70;99.90
23827;DHT22;12094;50.822;4.376;2022-12-18T02:29:03;-1.80;99.90
23827;DHT22;12094;50.822;4.376;2022-12-18T02:31:42;-1.80;99.90
23827;DHT22;12094;50.822;4.376;2022-12-18T02:34:13;-1.80;99.90
23827;DHT22;12094;50.822;4.376;2022-12-18T02:36:46;-1.80;99.90
23827;DHT22;12094;50.822;4.376;2022-12-18T02:39:14;-1.90;99.90
23827;DHT22;12094;50.822;4.376;2022-12-18T02:41:58;-1.80;99.90
23827;DHT22;12094;50.822;4.376;2022-12-18T02:44:27;-1.80;99.90
23827;DHT22;12094;50.822;4.376;2022-12-18T02:46:57;-1.70;99.90
23827;DHT22;12094;50.822;4.376;2022-12-18T02:58:15;-2.00;99.90
23827;DHT22;12094;50.822;4.376;2022-12-18T03:01:51;-2.00;99.90
23827;DHT22;12094;50.822;4.376;2022-12-18T03:04:04;-1.90;99.90
23827;DHT22;12094;50.822;4.376;2022-12-18T03:06:40;-1.90;99.90
23827;DHT22;12094;50.822;4.376;2022-12-18T03:09:17;-1.80;99.90
23827;DHT22;12094;50.822;4.376;2022-12-18T03:11:58;-1.70;99.90
23827;DHT22;12094;50.822;4.376;2022-12-18T03:17:31;-1.70;99.90
23827;DHT22;12094;50.822;4.376;2022-12-18T03:20:07;-1.70;99.90
23827;DHT22;12094;50.822;4.376;2022-12-18T03:22:37;-1.70;99.90
23827;DHT22;12094;50.822;4.376;2022-12-18T03:25:24;-1.70;99.90
23827;DHT22;12094;50.822;4.376;2022-12-18T03:27:58;-1.70;99.90
23827;DHT22;12094;50.822;4.376;2022-12-18T03:30:32;-1.80;99.90
23827;DHT22;12094;50.822;4.376;2022-12-18T03:33:27;-1.70;99.90
23827;DHT22;12094;50.822;4.376;2022-12-18T03:36:00;-1.70;99.90
23827;DHT22;12094;50.822;4.376;2022-12-18T03:38:28;-1.90;99.90
23827;DHT22;12094;50.822;4.376;2022-12-18T03:41:19;-2.00;99.90
23827;DHT22;12094;50.822;4.376;2022-12-18T03:44:29;-2.00;99.90
23827;DHT22;12094;50.822;4.376;2022-12-18T03:47:39;-2.20;99.90
23827;DHT22;12094;50.822;4.376;2022-12-18T03:50:19;-2.30;99.90
23827;DHT22;12094;50.822;4.376;2022-12-18T03:52:52;-2.30;99.90
23827;DHT22;12094;50.822;4.376;2022-12-18T03:55:23;-2.30;99.90
23827;DHT22;12094;50.822;4.376;2022-12-18T03:57:59;-2.40;99.90
23827;DHT22;12094;50.822;4.376;2022-12-18T04:00:40;-2.30;99.90
23827;DHT22;12094;50.822;4.376;2022-12-18T04:03:12;-2.30;99.90
23827;DHT22;12094;50.822;4.376;2022-12-18T04:05:48;-2.20;99.90
23827;DHT22;12094;50.822;4.376;2022-12-18T04:08:19;-2.20;99.90
23827;DHT22;12094;50.822;4.376;2022-12-18T04:10:57;-2.10;99.90
23827;DHT22;12094;50.822;4.376;2022-12-18T04:13:33;-2.10;99.90
23827;DHT22;12094;50.822;4.376;2022-12-18T04:16:05;-2.20;99.90
23827;DHT22;12094;50.822;4.376;2022-12-18T04:18:35;-2.20;99.90
23827;DHT22;12094;50.822;4.376;2022-12-18T04:21:04;-2.30;99.90
23827;DHT22;12094;50.822;4.376;2022-12-18T04:23:38;-2.40;99.90
23827;DHT22;12094;50.822;4.376;2022-12-18T04:26:07;-2.50;99.90
23827;DHT22;12094;50.822;4.376;2022-12-18T04:28:51;-2.50;99.90
23827;DHT22;12094;50.822;4.376;2022-12-18T04:31:18;-2.50;99.90
23827;DHT22;12094;50.822;4.376;2022-12-18T04:33:46;-2.50;99.90
23827;DHT22;12094;50.822;4.376;2022-12-18T04:36:15;-2.30;99.90
23827;DHT22;12094;50.822;4.376;2022-12-18T04:38:45;-2.30;99.90
23827;DHT22;12094;50.822;4.376;2022-12-18T04:41:17;-2.30;99.90
23827;DHT22;12094;50.822;4.376;2022-12-18T04:43:47;-2.40;99.90
23827;DHT22;12094;50.822;4.376;2022-12-18T04:46:14;-2.40;99.90
23827;DHT22;12094;50.822;4.376;2022-12-18T04:48:45;-2.40;99.90
23827;DHT22;12094;50.822;4.376;2022-12-18T04:51:16;-2.40;99.90
23827;DHT22;12094;50.822;4.376;2022-12-18T04:53:56;-2.30;99.90
23827;DHT22;12094;50.822;4.376;2022-12-18T04:56:37;-2.30;99.90
23827;DHT22;12094;50.822;4.376;2022-12-18T04:59:04;-2.20;99.90
23827;DHT22;12094;50.822;4.376;2022-12-18T05:01:37;-2.20;99.90
23827;DHT22;12094;50.822;4.376;2022-12-18T05:04:05;-2.20;99.90
23827;DHT22;12094;50.822;4.376;2022-12-18T05:06:33;-2.40;99.90
23827;DHT22;12094;50.822;4.376;2022-12-18T05:09:01;-2.40;99.90
23827;DHT22;12094;50.822;4.376;2022-12-18T05:11:29;-2.50;99.90
23827;DHT22;12094;50.822;4.376;2022-12-18T05:13:58;-2.60;99.90
23827;DHT22;12094;50.822;4.376;2022-12-18T05:16:24;-2.70;99.90
23827;DHT22;12094;50.822;4.376;2022-12-18T05:18:55;-2.60;99.90
23827;DHT22;12094;50.822;4.376;2022-12-18T05:21:23;-2.70;99.90
23827;DHT22;12094;50.822;4.376;2022-12-18T05:23:53;-2.70;99.90
23827;DHT22;12094;50.822;4.376;2022-12-18T05:26:20;-2.70;99.90
23827;DHT22;12094;50.822;4.376;2022-12-18T05:28:47;-2.70;99.90
23827;DHT22;12094;50.822;4.376;2022-12-18T05:31:21;-2.60;99.90
23827;DHT22;12094;50.822;4.376;2022-12-18T05:33:49;-2.70;99.90
23827;DHT22;12094;50.822;4.376;2022-12-18T05:36:19;-2.80;99.90
23827;DHT22;12094;50.822;4.376;2022-12-18T05:38:48;-2.80;99.90
23827;DHT22;12094;50.822;4.376;2022-12-18T05:41:16;-2.80;99.90
23827;DHT22;12094;50.822;4.376;2022-12-18T05:43:43;-2.80;99.90
23827;DHT22;12094;50.822;4.376;2022-12-18T05:46:14;-2.80;99.90
23827;DHT22;12094;50.822;4.376;2022-12-18T05:48:43;-2.80;99.90
23827;DHT22;12094;50.822;4.376;2022-12-18T05:51:14;-2.90;99.90
23827;DHT22;12094;50.822;4.376;2022-12-18T05:53:45;-2.80;99.90
23827;DHT22;12094;50.822;4.376;2022-12-18T05:56:18;-2.80;99.90
23827;DHT22;12094;50.822;4.376;2022-12-18T05:58:50;-2.80;99.90
23827;DHT22;12094;50.822;4.376;2022-12-18T06:01:23;-2.80;99.90
23827;DHT22;12094;50.822;4.376;2022-12-18T06:03:55;-2.80;99.90
23827;DHT22;12094;50.822;4.376;2022-12-18T06:06:25;-2.70;99.90
23827;DHT22;12094;50.822;4.376;2022-12-18T06:08:53;-2.60;99.90
23827;DHT22;12094;50.822;4.376;2022-12-18T06:11:24;-2.60;99.90
23827;DHT22;12094;50.822;4.376;2022-12-18T06:13:56;-2.60;99.90
23827;DHT22;12094;50.822;4.376;2022-12-18T06:16:39;-2.60;99.90
23827;DHT22;12094;50.822;4.376;2022-12-18T06:19:07;-2.40;99.90
23827;DHT22;12094;50.822;4.376;2022-12-18T06:21:34;-2.60;99.90
23827;DHT22;12094;50.822;4.376;2022-12-18T06:24:03;-2.60;99.90
23827;DHT22;12094;50.822;4.376;2022-12-18T06:26:31;-2.50;99.90
23827;DHT22;12094;50.822;4.376;2022-12-18T06:29:00;-2.50;99.90
23827;DHT22;12094;50.822;4.376;2022-12-18T06:31:28;-2.40;99.90
23827;DHT22;12094;50.822;4.376;2022-12-18T06:33:56;-2.40;99.90
23827;DHT22;12094;50.822;4.376;2022-12-18T06:36:24;-2.40;99.90
23827;DHT22;12094;50.822;4.376;2022-12-18T06:38:54;-2.40;99.90
23827;DHT22;12094;50.822;4.376;2022-12-18T06:41:24;-2.30;99.90
23827;DHT22;12094;50.822;4.376;2022-12-18T06:43:53;-2.20;99.90
23827;DHT22;12094;50.822;4.376;2022-12-18T06:46:26;-2.30;99.90
23827;DHT22;12094;50.822;4.376;2022-12-18T06:48:57;-2.20;99.90
23827;DHT22;12094;50.822;4.376;2022-12-18T06:51:27;-2.20;99.90
23827;DHT22;12094;50.822;4.376;2022-12-18T06:53:55;-2.20;99.90
23827;DHT22;12094;50.822;4.376;2022-12-18T06:56:26;-2.20;99.90
23827;DHT22;12094;50.822;4.376;2022-12-18T06:58:56;-2.30;99.90
23827;DHT22;12094;50.822;4.376;2022-12-18T07:01:24;-2.30;99.90
23827;DHT22;12094;50.822;4.376;2022-12-18T07:03:55;-2.30;99.90
23827;DHT22;12094;50.822;4.376;2022-12-18T07:06:24;-2.30;99.90
23827;DHT22;12094;50.822;4.376;2022-12-18T07:08:54;-2.30;99.90
23827;DHT22;12094;50.822;4.376;2022-12-18T07:11:24;-2.30;99.90
23827;DHT22;12094;50.822;4.376;2022-12-18T07:13:57;-2.30;99.90
23827;DHT22;12094;50.822;4.376;2022-12-18T07:16:25;-2.30;99.90
23827;DHT22;12094;50.822;4.376;2022-12-18T07:18:55;-2.20;99.90
23827;DHT22;12094;50.822;4.376;2022-12-18T07:21:24;-2.40;99.90
23827;DHT22;12094;50.822;4.376;2022-12-18T07:23:51;-2.30;99.90
23827;DHT22;12094;50.822;4.376;2022-12-18T07:30:37;-2.20;99.90
23827;DHT22;12094;50.822;4.376;2022-12-18T07:33:08;-2.10;99.90
23827;DHT22;12094;50.822;4.376;2022-12-18T07:35:36;-2.10;99.90
23827;DHT22;12094;50.822;4.376;2022-12-18T07:38:07;-2.10;99.90
23827;DHT22;12094;50.822;4.376;2022-12-18T07:40:33;-2.20;99.90
23827;DHT22;12094;50.822;4.376;2022-12-18T07:43:02;-2.10;99.90
23827;DHT22;12094;50.822;4.376;2022-12-18T07:45:32;-2.20;99.90
23827;DHT22;12094;50.822;4.376;2022-12-18T07:48:01;-2.30;99.90
23827;DHT22;12094;50.822;4.376;2022-12-18T07:50:33;-2.20;99.90
23827;DHT22;12094;50.822;4.376;2022-12-18T07:53:01;-2.10;99.90
23827;DHT22;12094;50.822;4.376;2022-12-18T07:55:31;-2.10;99.90
23827;DHT22;12094;50.822;4.376;2022-12-18T07:58:18;-2.00;99.90
23827;DHT22;12094;50.822;4.376;2022-12-18T08:00:47;-2.20;99.90
23827;DHT22;12094;50.822;4.376;2022-12-18T08:03:15;-2.20;99.90
23827;DHT22;12094;50.822;4.376;2022-12-18T08:05:42;-2.20;99.90
23827;DHT22;12094;50.822;4.376;2022-12-18T08:08:10;-2.20;99.90
23827;DHT22;12094;50.822;4.376;2022-12-18T08:10:37;-2.20;99.90
23827;DHT22;12094;50.822;4.376;2022-12-18T08:13:06;-2.20;99.90
23827;DHT22;12094;50.822;4.376;2022-12-18T08:15:33;-2.10;99.90
23827;DHT22;12094;50.822;4.376;2022-12-18T08:18:00;-2.10;99.90
23827;DHT22;12094;50.822;4.376;2022-12-18T08:20:27;-2.00;99.90
23827;DHT22;12094;50.822;4.376;2022-12-18T08:22:56;-2.00;99.90
23827;DHT22;12094;50.822;4.376;2022-12-18T08:25:24;-2.00;99.90
23827;DHT22;12094;50.822;4.376;2022-12-18T08:27:53;-1.90;99.90
23827;DHT22;12094;50.822;4.376;2022-12-18T08:30:24;-1.80;99.90
23827;DHT22;12094;50.822;4.376;2022-12-18T08:32:52;-1.80;99.90
23827;DHT22;12094;50.822;4.376;2022-12-18T08:35:20;-1.70;99.90
23827;DHT22;12094;50.822;4.376;2022-12-18T08:37:48;-1.70;99.90
23827;DHT22;12094;50.822;4.376;2022-12-18T08:40:17;-1.60;99.90
23827;DHT22;12094;50.822;4.376;2022-12-18T08:42:47;-1.60;99.90
23827;DHT22;12094;50.822;4.376;2022-12-18T08:45:59;-1.60;99.90
23827;DHT22;12094;50.822;4.376;2022-12-18T08:48:34;-1.50;99.90
23827;DHT22;12094;50.822;4.376;2022-12-18T08:51:02;-1.60;99.90
23827;DHT22;12094;50.822;4.376;2022-12-18T08:53:31;-1.60;99.90
23827;DHT22;12094;50.822;4.376;2022-12-18T08:56:03;-1.60;99.90
23827;DHT22;12094;50.822;4.376;2022-12-18T08:58:31;-1.50;99.90
23827;DHT22;12094;50.822;4.376;2022-12-18T09:01:01;-1.50;99.90
23827;DHT22;12094;50.822;4.376;2022-12-18T09:03:56;-1.40;99.90
23827;DHT22;12094;50.822;4.376;2022-12-18T09:06:29;-1.30;99.90
23827;DHT22;12094;50.822;4.376;2022-12-18T09:08:56;-1.30;99.90
23827;DHT22;12094;50.822;4.376;2022-12-18T09:11:26;-1.40;99.90
23827;DHT22;12094;50.822;4.376;2022-12-18T09:14:00;-1.30;99.90
23827;DHT22;12094;50.822;4.376;2022-12-18T09:16:32;-1.20;99.90
23827;DHT22;12094;50.822;4.376;2022-12-18T09:19:03;-1.20;99.90
23827;DHT22;12094;50.822;4.376;2022-12-18T09:21:34;-1.10;99.90
23827;DHT22;12094;50.822;4.376;2022-12-18T09:24:05;-1.10;99.90
23827;DHT22;12094;50.822;4.376;2022-12-18T09:26:35;-1.00;99.90
23827;DHT22;12094;50.822;4.376;2022-12-18T09:29:06;-0.70;99.90
23827;DHT22;12094;50.822;4.376;2022-12-18T09:31:38;-0.50;99.90
23827;DHT22;12094;50.822;4.376;2022-12-18T09:34:05;-0.60;99.90
23827;DHT22;12094;50.822;4.376;2022-12-18T09:36:36;-0.50;99.90
23827;DHT22;12094;50.822;4.376;2022-12-18T09:39:05;-0.50;99.90
23827;DHT22;12094;50.822;4.376;2022-12-18T09:44:20;-0.30;99.90
23827;DHT22;12094;50.822;4.376;2022-12-18T09:49:31;-0.20;99.90
23827;DHT22;12094;50.822;4.376;2022-12-18T09:52:15;-0.10;99.90
23827;DHT22;12094;50.822;4.376;2022-12-18T09:55:11;0.10;99.90
23827;DHT22;12094;50.822;4.376;2022-12-18T09:57:39;0.00;99.90
23827;DHT22;12094;50.822;4.376;2022-12-18T10:00:18;0.00;99.90
23827;DHT22;12094;50.822;4.376;2022-12-18T10:02:46;0.00;99.90
23827;DHT22;12094;50.822;4.376;2022-12-18T10:05:36;0.10;99.90
23827;DHT22;12094;50.822;4.376;2022-12-18T10:08:21;0.20;99.90
23827;DHT22;12094;50.822;4.376;2022-12-18T10:13:21;0.60;99.90
23827;DHT22;12094;50.822;4.376;2022-12-18T10:16:14;0.70;99.90
23827;DHT22;12094;50.822;4.376;2022-12-18T10:27:20;0.70;99.90
23827;DHT22;12094;50.822;4.376;2022-12-18T10:29:52;0.90;99.90
23827;DHT22;12094;50.822;4.376;2022-12-18T10:32:27;1.00;99.90
23827;DHT22;12094;50.822;4.376;2022-12-18T10:34:58;1.00;99.90
23827;DHT22;12094;50.822;4.376;2022-12-18T10:37:29;0.80;99.90
23827;DHT22;12094;50.822;4.376;2022-12-18T10:40:15;0.90;99.90
23827;DHT22;12094;50.822;4.376;2022-12-18T10:43:13;1.00;99.90
23827;DHT22;12094;50.822;4.376;2022-12-18T10:48:33;1.20;99.90
23827;DHT22;12094;50.822;4.376;2022-12-18T10:51:08;1.30;99.90
23827;DHT22;12094;50.822;4.376;2022-12-18T10:53:41;1.40;99.90
23827;DHT22;12094;50.822;4.376;2022-12-18T10:56:12;1.10;99.90
23827;DHT22;12094;50.822;4.376;2022-12-18T10:58:40;1.20;99.90
23827;DHT22;12094;50.822;4.376;2022-12-18T11:01:18;1.40;99.90
23827;DHT22;12094;50.822;4.376;2022-12-18T11:06:29;1.50;99.90
23827;DHT22;12094;50.822;4.376;2022-12-18T11:11:52;1.40;99.90
23827;DHT22;12094;50.822;4.376;2022-12-18T11:14:52;1.40;99.90
23827;DHT22;12094;50.822;4.376;2022-12-18T11:17:31;1.30;99.90
23827;DHT22;12094;50.822;4.376;2022-12-18T11:20:07;1.30;99.90
23827;DHT22;12094;50.822;4.376;2022-12-18T11:22:58;1.30;99.90
23827;DHT22;12094;50.822;4.376;2022-12-18T11:25:31;1.30;99.90
23827;DHT22;12094;50.822;4.376;2022-12-18T11:28:04;1.50;99.90
23827;DHT22;12094;50.822;4.376;2022-12-18T11:30:36;1.40;99.90
23827;DHT22;12094;50.822;4.376;2022-12-18T11:33:21;1.50;99.90
23827;DHT22;12094;50.822;4.376;2022-12-18T11:35:58;1.40;99.90
23827;DHT22;12094;50.822;4.376;2022-12-18T11:38:39;1.40;99.90
23827;DHT22;12094;50.822;4.376;2022-12-18T11:41:33;1.50;99.90
23827;DHT22;12094;50.822;4.376;2022-12-18T11:44:27;1.50;99.90
23827;DHT22;12094;50.822;4.376;2022-12-18T11:47:09;1.50;99.90
23827;DHT22;12094;50.822;4.376;2022-12-18T11:49:45;1.30;99.90
23827;DHT22;12094;50.822;4.376;2022-12-18T11:52:46;1.30;99.90
23827;DHT22;12094;50.822;4.376;2022-12-18T12:23:39;1.70;99.90
23827;DHT22;12094;50.822;4.376;2022-12-18T12:37:45;1.70;99.90
23827;DHT22;12094;50.822;4.376;2022-12-18T12:40:20;1.90;99.90
23827;DHT22;12094;50.822;4.376;2022-12-18T12:46:07;1.80;99.90
23827;DHT22;12094;50.822;4.376;2022-12-18T12:48:58;1.80;99.90
23827;DHT22;12094;50.822;4.376;2022-12-18T12:51:34;1.70;99.90
23827;DHT22;12094;50.822;4.376;2022-12-18T12:54:05;1.80;99.90
23827;DHT22;12094;50.822;4.376;2022-12-18T13:00:10;1.60;99.90
23827;DHT22;12094;50.822;4.376;2022-12-18T13:05:49;1.60;99.90
23827;DHT22;12094;50.822;4.376;2022-12-18T13:08:28;1.70;99.90
23827;DHT22;12094;50.822;4.376;2022-12-18T13:10:59;1.90;99.90
23827;DHT22;12094;50.822;4.376;2022-12-18T13:16:23;1.80;99.90
23827;DHT22;12094;50.822;4.376;2022-12-18T13:19:21;1.80;99.90
23827;DHT22;12094;50.822;4.376;2022-12-18T13:21:55;1.70;99.90
23827;DHT22;12094;50.822;4.376;2022-12-18T13:24:39;1.50;99.90
23827;DHT22;12094;50.822;4.376;2022-12-18T13:41:26;1.70;99.90
23827;DHT22;12094;50.822;4.376;2022-12-18T13:43:57;1.70;99.90
23827;DHT22;12094;50.822;4.376;2022-12-18T13:46:46;1.90;99.90
23827;DHT22;12094;50.822;4.376;2022-12-18T13:49:38;1.80;99.90
23827;DHT22;12094;50.822;4.376;2022-12-18T13:52:25;1.80;99.90
23827;DHT22;12094;50.822;4.376;2022-12-18T13:55:02;1.60;99.90
23827;DHT22;12094;50.822;4.376;2022-12-18T13:57:37;1.60;99.90
23827;DHT22;12094;50.822;4.376;2022-12-18T14:00:27;1.60;99.90
23827;DHT22;12094;50.822;4.376;2022-12-18T14:02:57;1.60;99.90
23827;DHT22;12094;50.822;4.376;2022-12-18T14:05:35;1.60;99.90
23827;DHT22;12094;50.822;4.376;2022-12-18T14:08:14;1.50;99.90
23827;DHT22;12094;50.822;4.376;2022-12-18T14:10:46;1.40;99.90
23827;DHT22;12094;50.822;4.376;2022-12-18T14:13:24;1.40;99.90
23827;DHT22;12094;50.822;4.376;2022-12-18T14:15:54;1.50;99.90
23827;DHT22;12094;50.822;4.376;2022-12-18T14:18:32;1.60;99.90
23827;DHT22;12094;50.822;4.376;2022-12-18T14:21:03;1.60;99.90
23827;DHT22;12094;50.822;4.376;2022-12-18T14:23:44;1.60;99.90
23827;DHT22;12094;50.822;4.376;2022-12-18T14:26:30;1.60;99.90
23827;DHT22;12094;50.822;4.376;2022-12-18T14:29:29;1.50;99.90
23827;DHT22;12094;50.822;4.376;2022-12-18T14:32:18;1.50;99.90
23827;DHT22;12094;50.822;4.376;2022-12-18T14:34:52;1.50;99.90
23827;DHT22;12094;50.822;4.376;2022-12-18T14:37:28;1.50;99.90
23827;DHT22;12094;50.822;4.376;2022-12-18T14:40:03;1.50;99.90
23827;DHT22;12094;50.822;4.376;2022-12-18T14:42:37;1.40;99.90
23827;DHT22;12094;50.822;4.376;2022-12-18T14:45:34;1.50;99.90
23827;DHT22;12094;50.822;4.376;2022-12-18T14:51:05;1.60;99.90
23827;DHT22;12094;50.822;4.376;2022-12-18T14:53:54;1.60;99.90
23827;DHT22;12094;50.822;4.376;2022-12-18T14:56:28;1.50;99.90
23827;DHT22;12094;50.822;4.376;2022-12-18T14:59:04;1.60;99.90
23827;DHT22;12094;50.822;4.376;2022-12-18T15:01:37;1.50;99.90
23827;DHT22;12094;50.822;4.376;2022-12-18T15:07:08;1.60;99.90
23827;DHT22;12094;50.822;4.376;2022-12-18T15:09:37;1.70;99.90
23827;DHT22;12094;50.822;4.376;2022-12-18T15:12:47;1.80;99.90
23827;DHT22;12094;50.822;4.376;2022-12-18T15:20:52;1.60;99.90
23827;DHT22;12094;50.822;4.376;2022-12-18T15:23:33;1.70;99.90
23827;DHT22;12094;50.822;4.376;2022-12-18T15:26:08;1.70;99.90
23827;DHT22;12094;50.822;4.376;2022-12-18T15:36:22;1.70;99.90
23827;DHT22;12094;50.822;4.376;2022-12-18T15:38:54;1.60;99.90
23827;DHT22;12094;50.822;4.376;2022-12-18T15:41:34;1.60;99.90
23827;DHT22;12094;50.822;4.376;2022-12-18T15:44:22;1.60;99.90
23827;DHT22;12094;50.822;4.376;2022-12-18T15:46:50;1.70;99.90
23827;DHT22;12094;50.822;4.376;2022-12-18T15:49:17;1.60;99.90
23827;DHT22;12094;50.822;4.376;2022-12-18T15:51:44;1.70;99.90
23827;DHT22;12094;50.822;4.376;2022-12-18T15:54:14;1.60;99.90
23827;DHT22;12094;50.822;4.376;2022-12-18T15:56:42;1.60;99.90
23827;DHT22;12094;50.822;4.376;2022-12-18T15:59:28;1.60;99.90
23827;DHT22;12094;50.822;4.376;2022-12-18T16:01:57;1.60;99.90
23827;DHT22;12094;50.822;4.376;2022-12-18T16:04:25;1.60;99.90
23827;DHT22;12094;50.822;4.376;2022-12-18T16:06:53;1.70;99.90
23827;DHT22;12094;50.822;4.376;2022-12-18T16:09:42;1.70;99.90
23827;DHT22;12094;50.822;4.376;2022-12-18T16:12:18;1.70;99.90
23827;DHT22;12094;50.822;4.376;2022-12-18T16:14:47;1.80;99.90
23827;DHT22;12094;50.822;4.376;2022-12-18T16:17:15;1.80;99.90
23827;DHT22;12094;50.822;4.376;2022-12-18T16:19:43;1.80;99.90
23827;DHT22;12094;50.822;4.376;2022-12-18T16:22:28;1.70;99.90
23827;DHT22;12094;50.822;4.376;2022-12-18T16:24:59;1.80;99.90
23827;DHT22;12094;50.822;4.376;2022-12-18T16:27:27;1.80;99.90
23827;DHT22;12094;50.822;4.376;2022-12-18T16:29:54;1.80;99.90
23827;DHT22;12094;50.822;4.376;2022-12-18T16:32:23;1.80;99.90
23827;DHT22;12094;50.822;4.376;2022-12-18T16:34:51;1.70;99.90
23827;DHT22;12094;50.822;4.376;2022-12-18T16:37:20;1.80;99.90
23827;DHT22;12094;50.822;4.376;2022-12-18T16:39:47;1.80;99.90
23827;DHT22;12094;50.822;4.376;2022-12-18T16:42:17;1.80;99.90
23827;DHT22;12094;50.822;4.376;2022-12-18T16:44:47;1.80;99.90
23827;DHT22;12094;50.822;4.376;2022-12-18T16:47:16;1.80;99.90
23827;DHT22;12094;50.822;4.376;2022-12-18T16:49:44;1.90;99.90
23827;DHT22;12094;50.822;4.376;2022-12-18T16:52:12;2.00;99.90
23827;DHT22;12094;50.822;4.376;2022-12-18T16:54:41;1.90;99.90
23827;DHT22;12094;50.822;4.376;2022-12-18T16:57:15;2.00;99.90
23827;DHT22;12094;50.822;4.376;2022-12-18T16:59:51;2.00;99.90
23827;DHT22;12094;50.822;4.376;2022-12-18T17:02:23;2.10;99.90
23827;DHT22;12094;50.822;4.376;2022-12-18T17:04:57;2.00;99.90
23827;DHT22;12094;50.822;4.376;2022-12-18T17:07:27;2.10;99.90
23827;DHT22;12094;50.822;4.376;2022-12-18T17:09:56;2.10;99.90
23827;DHT22;12094;50.822;4.376;2022-12-18T17:12:26;2.10;99.90
23827;DHT22;12094;50.822;4.376;2022-12-18T17:14:54;2.00;99.90
23827;DHT22;12094;50.822;4.376;2022-12-18T17:17:24;2.00;99.90
23827;DHT22;12094;50.822;4.376;2022-12-18T17:19:51;2.10;99.90
23827;DHT22;12094;50.822;4.376;2022-12-18T17:22:19;2.10;99.90
23827;DHT22;12094;50.822;4.376;2022-12-18T17:24:46;2.10;99.90
23827;DHT22;12094;50.822;4.376;2022-12-18T17:27:17;2.10;99.90
23827;DHT22;12094;50.822;4.376;2022-12-18T17:29:44;2.20;99.90
23827;DHT22;12094;50.822;4.376;2022-12-18T17:32:17;2.20;99.90
23827;DHT22;12094;50.822;4.376;2022-12-18T17:34:51;2.10;99.90
23827;DHT22;12094;50.822;4.376;2022-12-18T17:37:22;2.10;99.90
23827;DHT22;12094;50.822;4.376;2022-12-18T17:39:53;2.20;99.90
23827;DHT22;12094;50.822;4.376;2022-12-18T17:42:27;2.10;99.90
23827;DHT22;12094;50.822;4.376;2022-12-18T17:44:55;2.10;99.90
23827;DHT22;12094;50.822;4.376;2022-12-18T17:47:23;2.00;99.90
23827;DHT22;12094;50.822;4.376;2022-12-18T17:49:53;2.10;99.90
23827;DHT22;12094;50.822;4.376;2022-12-18T17:52:21;2.00;99.90
23827;DHT22;12094;50.822;4.376;2022-12-18T17:54:49;2.00;99.90
23827;DHT22;12094;50.822;4.376;2022-12-18T17:57:19;1.90;99.90
23827;DHT22;12094;50.822;4.376;2022-12-18T17:59:52;1.90;99.90
23827;DHT22;12094;50.822;4.376;2022-12-18T18:02:24;1.90;99.90
23827;DHT22;12094;50.822;4.376;2022-12-18T18:04:52;1.90;99.90
23827;DHT22;12094;50.822;4.376;2022-12-18T18:07:19;1.90;99.90
23827;DHT22;12094;50.822;4.376;2022-12-18T18:09:47;1.90;99.90
23827;DHT22;12094;50.822;4.376;2022-12-18T18:12:14;1.90;99.90
23827;DHT22;12094;50.822;4.376;2022-12-18T18:15:04;1.80;99.90
23827;DHT22;12094;50.822;4.376;2022-12-18T18:17:59;1.80;99.90
23827;DHT22;12094;50.822;4.376;2022-12-18T18:20:26;1.80;99.90
23827;DHT22;12094;50.822;4.376;2022-12-18T18:22:58;1.80;99.90
23827;DHT22;12094;50.822;4.376;2022-12-18T18:25:35;1.70;99.90
23827;DHT22;12094;50.822;4.376;2022-12-18T18:31:52;1.80;99.90
23827;DHT22;12094;50.822;4.376;2022-12-18T18:34:25;1.80;99.90
23827;DHT22;12094;50.822;4.376;2022-12-18T18:36:58;1.80;99.90
23827;DHT22;12094;50.822;4.376;2022-12-18T18:39:27;1.80;99.90
23827;DHT22;12094;50.822;4.376;2022-12-18T18:41:56;1.80;99.90
23827;DHT22;12094;50.822;4.376;2022-12-18T18:44:27;1.80;99.90
23827;DHT22;12094;50.822;4.376;2022-12-18T18:46:56;1.80;99.90